Terminal Aerodrome Forecast
Issued by NWS St Louis, MO

Home | Current Version | Previous Version | Text Only | Print | Product List | Glossary On
Versions: 1 2 3 4 5 6 7 8 9 10 11 12 13 14 15 16 17 18 19 20
000
FTUS43 KLSX 220520
TAFCOU
TAF
KCOU 220520Z 2206/2306 VRB03KT P6SM FEW250
     FM221400 20007KT P6SM FEW250
     FM221800 23009G16KT P6SM BKN150
     FM222000 25008G16KT P6SM VCTS BKN060CB
     FM230000 22006KT P6SM VCSH OVC080=

USA.gov is the U.S. government's official web portal to all federal, state and local government web resources and services.